sensor_id;sensor_type;location;lat;lon;timestamp;P1;durP1;ratioP1;P2;durP2;ratioP2
21804;SDS011;11064;47.102;15.452;2022-09-09T04:01:11;6.35;;;4.35;;
21804;SDS011;11064;47.102;15.452;2022-09-09T04:03:39;6.43;;;4.63;;
21804;SDS011;11064;47.102;15.452;2022-09-09T04:06:08;8.02;;;4.97;;
21804;SDS011;11064;47.102;15.452;2022-09-09T04:08:34;8.43;;;5.15;;
21804;SDS011;11064;47.102;15.452;2022-09-09T04:11:02;7.95;;;4.88;;
21804;SDS011;11064;47.102;15.452;2022-09-09T04:13:31;7.55;;;5.15;;
21804;SDS011;11064;47.102;15.452;2022-09-09T04:15:59;6.15;;;4.60;;
21804;SDS011;11064;47.102;15.452;2022-09-09T04:18:26;6.03;;;4.70;;
21804;SDS011;11064;47.102;15.452;2022-09-09T04:20:55;7.47;;;4.70;;
21804;SDS011;11064;47.102;15.452;2022-09-09T04:23:22;6.82;;;4.75;;
21804;SDS011;11064;47.102;15.452;2022-09-09T04:25:50;7.65;;;4.70;;
21804;SDS011;11064;47.102;15.452;2022-09-09T04:28:18;5.93;;;4.50;;
21804;SDS011;11064;47.102;15.452;2022-09-09T04:30:45;6.65;;;4.93;;
21804;SDS011;11064;47.102;15.452;2022-09-09T04:33:12;6.53;;;5.00;;
21804;SDS011;11064;47.102;15.452;2022-09-09T04:35:39;4.32;;;3.85;;
21804;SDS011;11064;47.102;15.452;2022-09-09T04:38:09;5.55;;;4.40;;
21804;SDS011;11064;47.102;15.452;2022-09-09T04:40:34;5.75;;;4.22;;
21804;SDS011;11064;47.102;15.452;2022-09-09T04:43:01;9.05;;;4.45;;
21804;SDS011;11064;47.102;15.452;2022-09-09T04:45:31;4.72;;;2.95;;
21804;SDS011;11064;47.102;15.452;2022-09-09T04:47:57;5.03;;;3.20;;
21804;SDS011;11064;47.102;15.452;2022-09-09T04:50:23;3.42;;;3.10;;
21804;SDS011;11064;47.102;15.452;2022-09-09T04:52:50;4.00;;;3.10;;
21804;SDS011;11064;47.102;15.452;2022-09-09T04:55:15;5.05;;;2.90;;
21804;SDS011;11064;47.102;15.452;2022-09-09T04:57:41;4.13;;;2.72;;
21804;SDS011;11064;47.102;15.452;2022-09-09T05:00:08;4.72;;;2.83;;
21804;SDS011;11064;47.102;15.452;2022-09-09T05:02:38;3.70;;;3.03;;
21804;SDS011;11064;47.102;15.452;2022-09-09T05:05:05;5.40;;;3.13;;
21804;SDS011;11064;47.102;15.452;2022-09-09T05:07:31;5.60;;;3.08;;
21804;SDS011;11064;47.102;15.452;2022-09-09T05:09:56;5.47;;;3.30;;
21804;SDS011;11064;47.102;15.452;2022-09-09T05:12:23;4.28;;;3.03;;
21804;SDS011;11064;47.102;15.452;2022-09-09T05:14:53;3.88;;;2.90;;
21804;SDS011;11064;47.102;15.452;2022-09-09T05:17:19;4.10;;;3.30;;
21804;SDS011;11064;47.102;15.452;2022-09-09T05:19:46;6.05;;;3.80;;
21804;SDS011;11064;47.102;15.452;2022-09-09T05:22:12;4.30;;;3.40;;
21804;SDS011;11064;47.102;15.452;2022-09-09T05:24:38;7.72;;;3.53;;
21804;SDS011;11064;47.102;15.452;2022-09-09T05:27:04;5.07;;;3.33;;
21804;SDS011;11064;47.102;15.452;2022-09-09T05:29:31;3.30;;;3.00;;
21804;SDS011;11064;47.102;15.452;2022-09-09T05:32:00;4.72;;;3.10;;
21804;SDS011;11064;47.102;15.452;2022-09-09T05:34:26;3.85;;;2.80;;
21804;SDS011;11064;47.102;15.452;2022-09-09T05:36:52;3.67;;;2.90;;
21804;SDS011;11064;47.102;15.452;2022-09-09T05:39:18;2.92;;;2.63;;
21804;SDS011;11064;47.102;15.452;2022-09-09T05:41:44;5.43;;;2.92;;
21804;SDS011;11064;47.102;15.452;2022-09-09T05:44:10;6.07;;;3.38;;
21804;SDS011;11064;47.102;15.452;2022-09-09T05:46:36;5.43;;;2.97;;
21804;SDS011;11064;47.102;15.452;2022-09-09T05:49:02;4.00;;;3.05;;
21804;SDS011;11064;47.102;15.452;2022-09-09T05:51:28;5.75;;;2.75;;
21804;SDS011;11064;47.102;15.452;2022-09-09T05:53:57;5.22;;;3.08;;
21804;SDS011;11064;47.102;15.452;2022-09-09T05:56:24;4.68;;;2.90;;
21804;SDS011;11064;47.102;15.452;2022-09-09T05:58:54;4.32;;;2.65;;
21804;SDS011;11064;47.102;15.452;2022-09-09T06:01:25;6.00;;;2.88;;
21804;SDS011;11064;47.102;15.452;2022-09-09T06:03:53;5.20;;;3.17;;
21804;SDS011;11064;47.102;15.452;2022-09-09T06:06:21;3.65;;;2.53;;
21804;SDS011;11064;47.102;15.452;2022-09-09T06:08:53;6.18;;;2.80;;
21804;SDS011;11064;47.102;15.452;2022-09-09T06:11:23;4.75;;;3.05;;
21804;SDS011;11064;47.102;15.452;2022-09-09T06:13:51;3.55;;;2.47;;
21804;SDS011;11064;47.102;15.452;2022-09-09T06:16:20;6.15;;;2.90;;
21804;SDS011;11064;47.102;15.452;2022-09-09T06:18:50;3.00;;;2.50;;
21804;SDS011;11064;47.102;15.452;2022-09-09T06:21:19;6.05;;;2.80;;
21804;SDS011;11064;47.102;15.452;2022-09-09T06:23:51;5.78;;;2.75;;
21804;SDS011;11064;47.102;15.452;2022-09-09T06:26:21;3.88;;;2.60;;
21804;SDS011;11064;47.102;15.452;2022-09-09T06:28:52;3.90;;;2.55;;
21804;SDS011;11064;47.102;15.452;2022-09-09T06:31:20;5.07;;;2.70;;
21804;SDS011;11064;47.102;15.452;2022-09-09T06:33:48;4.22;;;2.53;;
21804;SDS011;11064;47.102;15.452;2022-09-09T06:38:44;5.03;;;2.53;;
21804;SDS011;11064;47.102;15.452;2022-09-09T06:41:11;3.38;;;2.55;;
21804;SDS011;11064;47.102;15.452;2022-09-09T06:43:39;5.00;;;2.50;;
21804;SDS011;11064;47.102;15.452;2022-09-09T06:46:09;6.80;;;2.70;;
21804;SDS011;11064;47.102;15.452;2022-09-09T06:48:41;4.20;;;2.53;;
21804;SDS011;11064;47.102;15.452;2022-09-09T06:51:12;4.17;;;2.30;;
21804;SDS011;11064;47.102;15.452;2022-09-09T06:53:50;3.67;;;2.40;;
21804;SDS011;11064;47.102;15.452;2022-09-09T06:56:18;5.75;;;2.35;;
21804;SDS011;11064;47.102;15.452;2022-09-09T06:58:47;2.37;;;2.10;;
21804;SDS011;11064;47.102;15.452;2022-09-09T07:01:23;2.45;;;1.70;;
21804;SDS011;11064;47.102;15.452;2022-09-09T07:03:52;5.70;;;2.00;;
21804;SDS011;11064;47.102;15.452;2022-09-09T07:06:21;2.90;;;1.95;;
21804;SDS011;11064;47.102;15.452;2022-09-09T07:08:52;2.60;;;1.80;;
21804;SDS011;11064;47.102;15.452;2022-09-09T07:11:20;2.78;;;1.85;;
21804;SDS011;11064;47.102;15.452;2022-09-09T07:13:47;5.40;;;1.73;;
21804;SDS011;11064;47.102;15.452;2022-09-09T07:16:17;5.20;;;1.80;;
21804;SDS011;11064;47.102;15.452;2022-09-09T07:18:45;4.07;;;2.13;;
21804;SDS011;11064;47.102;15.452;2022-09-09T07:21:12;5.60;;;2.00;;
21804;SDS011;11064;47.102;15.452;2022-09-09T07:23:39;3.13;;;2.35;;
21804;SDS011;11064;47.102;15.452;2022-09-09T07:26:10;2.83;;;2.20;;
21804;SDS011;11064;47.102;15.452;2022-09-09T07:28:38;2.88;;;1.92;;
21804;SDS011;11064;47.102;15.452;2022-09-09T07:31:06;5.70;;;2.40;;
21804;SDS011;11064;47.102;15.452;2022-09-09T07:33:38;4.80;;;2.47;;
21804;SDS011;11064;47.102;15.452;2022-09-09T07:36:07;5.13;;;2.50;;
21804;SDS011;11064;47.102;15.452;2022-09-09T07:38:41;4.90;;;2.58;;
21804;SDS011;11064;47.102;15.452;2022-09-09T07:41:12;4.03;;;2.60;;
21804;SDS011;11064;47.102;15.452;2022-09-09T07:43:41;5.20;;;2.88;;
21804;SDS011;11064;47.102;15.452;2022-09-09T07:46:08;5.32;;;2.60;;
21804;SDS011;11064;47.102;15.452;2022-09-09T07:48:37;5.70;;;2.40;;
21804;SDS011;11064;47.102;15.452;2022-09-09T07:51:07;4.75;;;2.50;;
21804;SDS011;11064;47.102;15.452;2022-09-09T07:53:37;5.00;;;3.00;;
21804;SDS011;11064;47.102;15.452;2022-09-09T07:56:04;3.35;;;2.53;;
21804;SDS011;11064;47.102;15.452;2022-09-09T07:58:32;4.72;;;2.50;;
21804;SDS011;11064;47.102;15.452;2022-09-09T08:00:58;5.45;;;2.83;;
21804;SDS011;11064;47.102;15.452;2022-09-09T08:03:24;4.55;;;2.70;;
21804;SDS011;11064;47.102;15.452;2022-09-09T08:05:50;4.63;;;2.50;;
21804;SDS011;11064;47.102;15.452;2022-09-09T08:08:16;4.30;;;2.60;;
21804;SDS011;11064;47.102;15.452;2022-09-09T08:10:42;3.88;;;2.67;;
21804;SDS011;11064;47.102;15.452;2022-09-09T08:13:08;3.47;;;2.40;;
21804;SDS011;11064;47.102;15.452;2022-09-09T08:15:34;5.35;;;2.40;;
21804;SDS011;11064;47.102;15.452;2022-09-09T08:18:00;5.97;;;2.83;;
21804;SDS011;11064;47.102;15.452;2022-09-09T08:20:25;4.97;;;3.05;;
21804;SDS011;11064;47.102;15.452;2022-09-09T08:22:54;5.15;;;2.80;;
21804;SDS011;11064;47.102;15.452;2022-09-09T08:25:20;6.95;;;2.92;;
21804;SDS011;11064;47.102;15.452;2022-09-09T08:27:46;3.97;;;2.78;;
21804;SDS011;11064;47.102;15.452;2022-09-09T08:30:12;5.32;;;2.70;;
21804;SDS011;11064;47.102;15.452;2022-09-09T08:32:39;6.68;;;2.92;;
21804;SDS011;11064;47.102;15.452;2022-09-09T08:35:05;6.25;;;3.10;;
21804;SDS011;11064;47.102;15.452;2022-09-09T08:37:31;3.72;;;2.78;;
21804;SDS011;11064;47.102;15.452;2022-09-09T08:39:57;5.57;;;2.75;;
21804;SDS011;11064;47.102;15.452;2022-09-09T08:50:36;5.20;;;2.92;;
21804;SDS011;11064;47.102;15.452;2022-09-09T08:53:17;4.55;;;2.70;;
21804;SDS011;11064;47.102;15.452;2022-09-09T08:55:48;7.22;;;2.75;;
21804;SDS011;11064;47.102;15.452;2022-09-09T08:58:34;4.90;;;2.72;;
21804;SDS011;11064;47.102;15.452;2022-09-09T09:01:17;5.43;;;2.70;;
21804;SDS011;11064;47.102;15.452;2022-09-09T09:06:42;4.15;;;2.70;;
21804;SDS011;11064;47.102;15.452;2022-09-09T09:11:56;5.95;;;2.50;;
21804;SDS011;11064;47.102;15.452;2022-09-09T09:19:38;3.78;;;2.42;;
21804;SDS011;11064;47.102;15.452;2022-09-09T09:22:11;8.52;;;2.50;;
21804;SDS011;11064;47.102;15.452;2022-09-09T09:25:14;3.50;;;2.28;;
21804;SDS011;11064;47.102;15.452;2022-09-09T09:27:46;3.30;;;2.58;;
21804;SDS011;11064;47.102;15.452;2022-09-09T09:30:26;5.88;;;2.70;;
21804;SDS011;11064;47.102;15.452;2022-09-09T09:35:27;4.95;;;2.38;;
21804;SDS011;11064;47.102;15.452;2022-09-09T09:37:53;4.90;;;2.53;;
21804;SDS011;11064;47.102;15.452;2022-09-09T09:40:20;6.85;;;2.40;;
21804;SDS011;11064;47.102;15.452;2022-09-09T09:42:51;4.25;;;2.53;;
21804;SDS011;11064;47.102;15.452;2022-09-09T09:45:20;4.33;;;2.27;;
21804;SDS011;11064;47.102;15.452;2022-09-09T09:47:59;3.17;;;2.20;;
21804;SDS011;11064;47.102;15.452;2022-09-09T09:50:30;3.50;;;2.30;;
21804;SDS011;11064;47.102;15.452;2022-09-09T09:53:02;3.60;;;2.20;;
21804;SDS011;11064;47.102;15.452;2022-09-09T09:55:30;3.15;;;2.10;;
21804;SDS011;11064;47.102;15.452;2022-09-09T09:58:05;3.13;;;2.10;;
21804;SDS011;11064;47.102;15.452;2022-09-09T10:00:46;4.30;;;2.00;;
21804;SDS011;11064;47.102;15.452;2022-09-09T10:03:19;5.88;;;2.30;;
21804;SDS011;11064;47.102;15.452;2022-09-09T10:05:48;3.92;;;2.40;;
21804;SDS011;11064;47.102;15.452;2022-09-09T10:08:15;3.85;;;2.30;;
21804;SDS011;11064;47.102;15.452;2022-09-09T10:13:18;4.30;;;1.90;;
21804;SDS011;11064;47.102;15.452;2022-09-09T10:18:59;3.60;;;1.85;;
21804;SDS011;11064;47.102;15.452;2022-09-09T10:21:36;1.75;;;1.33;;
21804;SDS011;11064;47.102;15.452;2022-09-09T10:24:29;2.92;;;1.35;;
21804;SDS011;11064;47.102;15.452;2022-09-09T10:27:10;2.28;;;1.70;;
21804;SDS011;11064;47.102;15.452;2022-09-09T10:30:18;3.25;;;1.40;;
21804;SDS011;11064;47.102;15.452;2022-09-09T10:35:39;2.63;;;1.10;;
21804;SDS011;11064;47.102;15.452;2022-09-09T10:57:03;3.72;;;1.30;;
21804;SDS011;11064;47.102;15.452;2022-09-09T10:59:33;3.75;;;1.38;;
21804;SDS011;11064;47.102;15.452;2022-09-09T11:02:13;2.35;;;1.40;;
21804;SDS011;11064;47.102;15.452;2022-09-09T11:04:49;1.60;;;1.40;;
21804;SDS011;11064;47.102;15.452;2022-09-09T11:07:40;4.03;;;1.48;;
21804;SDS011;11064;47.102;15.452;2022-09-09T11:12:50;1.13;;;1.02;;
21804;SDS011;11064;47.102;15.452;2022-09-09T11:15:23;2.25;;;1.30;;
21804;SDS011;11064;47.102;15.452;2022-09-09T11:18:05;2.08;;;1.35;;
21804;SDS011;11064;47.102;15.452;2022-09-09T11:20:38;1.67;;;1.30;;
21804;SDS011;11064;47.102;15.452;2022-09-09T11:23:09;1.70;;;1.40;;
21804;SDS011;11064;47.102;15.452;2022-09-09T11:25:45;1.80;;;1.20;;
21804;SDS011;11064;47.102;15.452;2022-09-09T11:39:38;1.40;;;1.30;;
21804;SDS011;11064;47.102;15.452;2022-09-09T11:42:21;4.68;;;1.55;;
21804;SDS011;11064;47.102;15.452;2022-09-09T11:44:49;3.63;;;1.53;;
21804;SDS011;11064;47.102;15.452;2022-09-09T11:49:51;3.42;;;1.80;;
21804;SDS011;11064;47.102;15.452;2022-09-09T11:54:47;2.30;;;2.00;;
21804;SDS011;11064;47.102;15.452;2022-09-09T11:57:34;4.50;;;1.83;;
21804;SDS011;11064;47.102;15.452;2022-09-09T12:00:01;3.05;;;1.70;;
21804;SDS011;11064;47.102;15.452;2022-09-09T12:02:28;2.70;;;1.40;;
21804;SDS011;11064;47.102;15.452;2022-09-09T12:05:05;2.92;;;1.70;;
21804;SDS011;11064;47.102;15.452;2022-09-09T12:12:49;2.10;;;1.30;;
21804;SDS011;11064;47.102;15.452;2022-09-09T12:15:19;1.90;;;1.52;;
21804;SDS011;11064;47.102;15.452;2022-09-09T12:17:52;2.05;;;1.27;;
21804;SDS011;11064;47.102;15.452;2022-09-09T12:23:18;3.28;;;1.20;;
21804;SDS011;11064;47.102;15.452;2022-09-09T12:29:01;3.33;;;1.10;;
21804;SDS011;11064;47.102;15.452;2022-09-09T12:31:46;5.78;;;1.13;;
21804;SDS011;11064;47.102;15.452;2022-09-09T12:34:16;3.47;;;1.17;;
21804;SDS011;11064;47.102;15.452;2022-09-09T12:37:04;2.05;;;1.10;;
21804;SDS011;11064;47.102;15.452;2022-09-09T12:40:02;1.15;;;1.02;;
21804;SDS011;11064;47.102;15.452;2022-09-09T12:42:43;1.30;;;0.77;;
21804;SDS011;11064;47.102;15.452;2022-09-09T12:45:16;1.88;;;0.95;;
21804;SDS011;11064;47.102;15.452;2022-09-09T12:47:48;1.88;;;1.05;;
21804;SDS011;11064;47.102;15.452;2022-09-09T12:50:19;1.42;;;0.90;;
21804;SDS011;11064;47.102;15.452;2022-09-09T12:52:47;2.25;;;1.30;;
21804;SDS011;11064;47.102;15.452;2022-09-09T12:55:20;2.03;;;1.23;;
21804;SDS011;11064;47.102;15.452;2022-09-09T12:57:50;3.92;;;1.23;;
21804;SDS011;11064;47.102;15.452;2022-09-09T13:02:50;2.85;;;1.17;;
21804;SDS011;11064;47.102;15.452;2022-09-09T13:05:19;1.63;;;0.90;;
21804;SDS011;11064;47.102;15.452;2022-09-09T13:07:52;2.15;;;1.20;;
21804;SDS011;11064;47.102;15.452;2022-09-09T13:10:28;3.67;;;0.93;;
21804;SDS011;11064;47.102;15.452;2022-09-09T13:12:55;0.88;;;0.88;;
21804;SDS011;11064;47.102;15.452;2022-09-09T13:15:23;4.57;;;1.15;;
21804;SDS011;11064;47.102;15.452;2022-09-09T13:17:56;1.02;;;0.93;;
21804;SDS011;11064;47.102;15.452;2022-09-09T13:20:25;4.07;;;1.23;;
21804;SDS011;11064;47.102;15.452;2022-09-09T13:22:52;2.97;;;1.20;;
21804;SDS011;11064;47.102;15.452;2022-09-09T13:25:25;3.85;;;1.20;;
21804;SDS011;11064;47.102;15.452;2022-09-09T13:27:58;2.08;;;1.15;;
21804;SDS011;11064;47.102;15.452;2022-09-09T13:30:33;3.47;;;1.10;;
21804;SDS011;11064;47.102;15.452;2022-09-09T13:35:47;1.73;;;1.27;;
21804;SDS011;11064;47.102;15.452;2022-09-09T13:38:37;1.85;;;1.00;;
21804;SDS011;11064;47.102;15.452;2022-09-09T13:41:06;1.48;;;0.95;;
21804;SDS011;11064;47.102;15.452;2022-09-09T13:43:35;1.95;;;1.17;;
21804;SDS011;11064;47.102;15.452;2022-09-09T13:46:03;1.40;;;1.25;;
21804;SDS011;11064;47.102;15.452;2022-09-09T13:48:31;4.88;;;1.30;;
21804;SDS011;11064;47.102;15.452;2022-09-09T13:51:01;1.85;;;1.45;;
21804;SDS011;11064;47.102;15.452;2022-09-09T13:53:30;2.95;;;1.38;;
21804;SDS011;11064;47.102;15.452;2022-09-09T13:55:56;3.33;;;1.60;;
21804;SDS011;11064;47.102;15.452;2022-09-09T13:58:23;2.15;;;1.60;;
21804;SDS011;11064;47.102;15.452;2022-09-09T14:00:51;1.60;;;1.50;;
21804;SDS011;11064;47.102;15.452;2022-09-09T14:03:18;5.10;;;1.80;;
21804;SDS011;11064;47.102;15.452;2022-09-09T14:05:44;4.65;;;1.80;;
21804;SDS011;11064;47.102;15.452;2022-09-09T14:08:14;2.70;;;1.70;;
21804;SDS011;11064;47.102;15.452;2022-09-09T14:10:46;3.50;;;1.70;;
21804;SDS011;11064;47.102;15.452;2022-09-09T14:13:12;4.65;;;2.00;;
21804;SDS011;11064;47.102;15.452;2022-09-09T14:15:38;2.72;;;1.75;;
21804;SDS011;11064;47.102;15.452;2022-09-09T14:18:04;3.60;;;1.88;;
21804;SDS011;11064;47.102;15.452;2022-09-09T14:20:29;2.47;;;1.73;;
21804;SDS011;11064;47.102;15.452;2022-09-09T14:22:55;2.08;;;1.70;;
21804;SDS011;11064;47.102;15.452;2022-09-09T14:25:23;4.63;;;2.15;;
21804;SDS011;11064;47.102;15.452;2022-09-09T14:27:48;3.80;;;2.08;;
21804;SDS011;11064;47.102;15.452;2022-09-09T14:30:16;2.83;;;1.92;;
21804;SDS011;11064;47.102;15.452;2022-09-09T14:32:41;2.05;;;1.80;;
21804;SDS011;11064;47.102;15.452;2022-09-09T14:35:07;4.40;;;2.47;;
21804;SDS011;11064;47.102;15.452;2022-09-09T14:37:34;5.03;;;2.10;;
21804;SDS011;11064;47.102;15.452;2022-09-09T14:39:59;5.38;;;2.28;;
21804;SDS011;11064;47.102;15.452;2022-09-09T14:42:25;2.80;;;2.15;;
21804;SDS011;11064;47.102;15.452;2022-09-09T14:44:51;4.90;;;2.03;;
21804;SDS011;11064;47.102;15.452;2022-09-09T14:47:17;5.63;;;2.65;;
21804;SDS011;11064;47.102;15.452;2022-09-09T14:49:43;5.10;;;2.50;;
21804;SDS011;11064;47.102;15.452;2022-09-09T14:52:10;4.50;;;2.58;;
21804;SDS011;11064;47.102;15.452;2022-09-09T14:54:36;3.78;;;2.58;;
21804;SDS011;11064;47.102;15.452;2022-09-09T14:57:02;4.93;;;2.60;;
21804;SDS011;11064;47.102;15.452;2022-09-09T14:59:28;3.28;;;2.40;;
21804;SDS011;11064;47.102;15.452;2022-09-09T15:01:53;3.38;;;2.45;;
21804;SDS011;11064;47.102;15.452;2022-09-09T15:04:19;3.88;;;2.65;;
21804;SDS011;11064;47.102;15.452;2022-09-09T15:06:45;7.97;;;2.60;;
21804;SDS011;11064;47.102;15.452;2022-09-09T15:09:13;7.25;;;2.63;;
21804;SDS011;11064;47.102;15.452;2022-09-09T15:11:40;6.88;;;3.03;;
21804;SDS011;11064;47.102;15.452;2022-09-09T15:14:07;6.43;;;2.60;;
21804;SDS011;11064;47.102;15.452;2022-09-09T15:16:34;4.95;;;2.65;;
21804;SDS011;11064;47.102;15.452;2022-09-09T15:19:00;4.45;;;2.63;;
21804;SDS011;11064;47.102;15.452;2022-09-09T15:21:27;6.65;;;2.85;;
21804;SDS011;11064;47.102;15.452;2022-09-09T15:23:56;7.70;;;2.97;;
21804;SDS011;11064;47.102;15.452;2022-09-09T15:26:22;5.03;;;3.10;;
21804;SDS011;11064;47.102;15.452;2022-09-09T15:28:49;4.30;;;2.60;;
21804;SDS011;11064;47.102;15.452;2022-09-09T15:31:17;4.65;;;2.80;;
21804;SDS011;11064;47.102;15.452;2022-09-09T15:33:51;5.28;;;3.00;;
21804;SDS011;11064;47.102;15.452;2022-09-09T15:36:23;5.38;;;3.00;;
21804;SDS011;11064;47.102;15.452;2022-09-09T15:38:50;3.67;;;2.88;;
21804;SDS011;11064;47.102;15.452;2022-09-09T15:41:17;4.13;;;2.95;;
21804;SDS011;11064;47.102;15.452;2022-09-09T15:43:48;3.55;;;3.10;;
21804;SDS011;11064;47.102;15.452;2022-09-09T15:46:29;4.38;;;2.55;;
21804;SDS011;11064;47.102;15.452;2022-09-09T15:49:05;4.68;;;2.42;;
21804;SDS011;11064;47.102;15.452;2022-09-09T15:51:33;4.10;;;2.83;;
21804;SDS011;11064;47.102;15.452;2022-09-09T15:53:59;3.83;;;2.70;;
21804;SDS011;11064;47.102;15.452;2022-09-09T15:56:25;5.07;;;2.72;;
21804;SDS011;11064;47.102;15.452;2022-09-09T15:58:53;4.68;;;3.17;;
21804;SDS011;11064;47.102;15.452;2022-09-09T16:01:20;3.63;;;3.25;;
21804;SDS011;11064;47.102;15.452;2022-09-09T16:03:46;4.60;;;2.58;;
21804;SDS011;11064;47.102;15.452;2022-09-09T16:06:13;4.00;;;2.42;;
21804;SDS011;11064;47.102;15.452;2022-09-09T16:08:40;2.90;;;2.60;;
21804;SDS011;11064;47.102;15.452;2022-09-09T16:11:12;8.77;;;3.00;;
21804;SDS011;11064;47.102;15.452;2022-09-09T16:13:40;4.75;;;2.30;;
21804;SDS011;11064;47.102;15.452;2022-09-09T16:16:07;5.50;;;2.50;;
21804;SDS011;11064;47.102;15.452;2022-09-09T16:18:39;4.40;;;2.40;;
21804;SDS011;11064;47.102;15.452;2022-09-09T16:21:08;3.60;;;2.47;;
21804;SDS011;11064;47.102;15.452;2022-09-09T16:23:43;3.50;;;2.50;;
21804;SDS011;11064;47.102;15.452;2022-09-09T16:26:13;4.45;;;2.45;;
21804;SDS011;11064;47.102;15.452;2022-09-09T16:28:39;3.75;;;2.30;;
21804;SDS011;11064;47.102;15.452;2022-09-09T16:31:06;7.57;;;2.30;;
21804;SDS011;11064;47.102;15.452;2022-09-09T16:33:35;5.68;;;2.20;;
21804;SDS011;11064;47.102;15.452;2022-09-09T16:36:05;3.90;;;2.20;;
21804;SDS011;11064;47.102;15.452;2022-09-09T16:38:32;3.05;;;2.20;;
21804;SDS011;11064;47.102;15.452;2022-09-09T16:40:59;2.50;;;2.30;;
21804;SDS011;11064;47.102;15.452;2022-09-09T16:43:25;2.33;;;2.10;;
21804;SDS011;11064;47.102;15.452;2022-09-09T16:45:51;3.63;;;2.20;;
21804;SDS011;11064;47.102;15.452;2022-09-09T16:48:17;5.32;;;2.03;;
21804;SDS011;11064;47.102;15.452;2022-09-09T16:50:43;3.15;;;2.00;;
21804;SDS011;11064;47.102;15.452;2022-09-09T16:53:09;4.88;;;2.38;;
21804;SDS011;11064;47.102;15.452;2022-09-09T16:55:39;4.05;;;2.60;;
21804;SDS011;11064;47.102;15.452;2022-09-09T16:58:06;3.77;;;2.47;;
21804;SDS011;11064;47.102;15.452;2022-09-09T17:00:34;7.47;;;2.50;;
21804;SDS011;11064;47.102;15.452;2022-09-09T17:03:00;3.88;;;2.67;;
21804;SDS011;11064;47.102;15.452;2022-09-09T17:05:26;6.13;;;2.75;;
21804;SDS011;11064;47.102;15.452;2022-09-09T17:07:51;5.32;;;2.80;;
21804;SDS011;11064;47.102;15.452;2022-09-09T17:10:20;4.13;;;2.75;;
21804;SDS011;11064;47.102;15.452;2022-09-09T17:12:46;6.35;;;2.53;;
21804;SDS011;11064;47.102;15.452;2022-09-09T17:15:12;3.17;;;2.60;;
21804;SDS011;11064;47.102;15.452;2022-09-09T17:17:37;5.82;;;2.90;;
21804;SDS011;11064;47.102;15.452;2022-09-09T17:20:04;4.25;;;2.90;;
21804;SDS011;11064;47.102;15.452;2022-09-09T17:22:33;6.60;;;3.40;;
21804;SDS011;11064;47.102;15.452;2022-09-09T17:24:59;4.53;;;2.97;;
21804;SDS011;11064;47.102;15.452;2022-09-09T17:27:25;8.95;;;3.30;;
21804;SDS011;11064;47.102;15.452;2022-09-09T17:29:51;5.13;;;3.20;;
21804;SDS011;11064;47.102;15.452;2022-09-09T17:32:16;8.50;;;3.92;;
21804;SDS011;11064;47.102;15.452;2022-09-09T17:34:43;11.63;;;3.90;;
21804;SDS011;11064;47.102;15.452;2022-09-09T17:37:11;6.88;;;4.10;;
21804;SDS011;11064;47.102;15.452;2022-09-09T17:39:37;7.50;;;3.78;;
21804;SDS011;11064;47.102;15.452;2022-09-09T17:42:03;5.65;;;4.10;;
21804;SDS011;11064;47.102;15.452;2022-09-09T17:44:28;10.73;;;4.15;;
21804;SDS011;11064;47.102;15.452;2022-09-09T17:46:57;4.72;;;4.07;;
21804;SDS011;11064;47.102;15.452;2022-09-09T17:49:22;6.60;;;4.30;;
21804;SDS011;11064;47.102;15.452;2022-09-09T17:51:48;5.75;;;3.78;;
21804;SDS011;11064;47.102;15.452;2022-09-09T17:54:15;4.93;;;3.85;;
21804;SDS011;11064;47.102;15.452;2022-09-09T17:56:42;9.45;;;3.38;;
21804;SDS011;11064;47.102;15.452;2022-09-09T17:59:10;7.85;;;3.47;;
21804;SDS011;11064;47.102;15.452;2022-09-09T18:01:38;5.55;;;3.60;;
21804;SDS011;11064;47.102;15.452;2022-09-09T18:04:06;4.55;;;3.20;;
21804;SDS011;11064;47.102;15.452;2022-09-09T18:06:35;5.13;;;3.95;;
21804;SDS011;11064;47.102;15.452;2022-09-09T18:09:09;6.32;;;4.22;;
21804;SDS011;11064;47.102;15.452;2022-09-09T18:11:43;5.20;;;3.88;;
21804;SDS011;11064;47.102;15.452;2022-09-09T18:14:15;6.13;;;4.40;;
21804;SDS011;11064;47.102;15.452;2022-09-09T18:16:46;9.82;;;4.32;;
21804;SDS011;11064;47.102;15.452;2022-09-09T18:19:13;14.30;;;4.20;;
21804;SDS011;11064;47.102;15.452;2022-09-09T18:21:42;7.60;;;4.45;;
21804;SDS011;11064;47.102;15.452;2022-09-09T18:24:08;6.18;;;4.55;;
21804;SDS011;11064;47.102;15.452;2022-09-09T18:26:35;7.85;;;4.13;;
21804;SDS011;11064;47.102;15.452;2022-09-09T18:29:11;6.30;;;4.00;;
21804;SDS011;11064;47.102;15.452;2022-09-09T18:31:39;7.00;;;3.78;;
21804;SDS011;11064;47.102;15.452;2022-09-09T18:34:07;5.35;;;4.30;;
21804;SDS011;11064;47.102;15.452;2022-09-09T18:36:37;8.93;;;4.50;;
21804;SDS011;11064;47.102;15.452;2022-09-09T18:39:22;9.40;;;4.50;;
21804;SDS011;11064;47.102;15.452;2022-09-09T18:41:52;6.63;;;4.40;;
21804;SDS011;11064;47.102;15.452;2022-09-09T18:44:22;6.38;;;4.50;;
21804;SDS011;11064;47.102;15.452;2022-09-09T18:46:52;7.18;;;4.50;;
21804;SDS011;11064;47.102;15.452;2022-09-09T18:49:19;5.93;;;3.95;;
21804;SDS011;11064;47.102;15.452;2022-09-09T18:51:46;5.95;;;3.88;;
21804;SDS011;11064;47.102;15.452;2022-09-09T18:54:16;5.85;;;4.15;;
21804;SDS011;11064;47.102;15.452;2022-09-09T18:56:43;5.93;;;3.88;;
21804;SDS011;11064;47.102;15.452;2022-09-09T18:59:12;10.00;;;4.78;;
21804;SDS011;11064;47.102;15.452;2022-09-09T19:01:43;10.77;;;4.78;;
21804;SDS011;11064;47.102;15.452;2022-09-09T19:04:09;9.15;;;4.97;;
21804;SDS011;11064;47.102;15.452;2022-09-09T19:06:38;7.03;;;4.90;;
21804;SDS011;11064;47.102;15.452;2022-09-09T19:09:08;7.20;;;4.95;;
21804;SDS011;11064;47.102;15.452;2022-09-09T19:11:35;7.22;;;4.70;;
21804;SDS011;11064;47.102;15.452;2022-09-09T19:14:02;8.70;;;4.45;;
21804;SDS011;11064;47.102;15.452;2022-09-09T19:16:30;5.07;;;4.55;;
21804;SDS011;11064;47.102;15.452;2022-09-09T19:19:03;5.57;;;4.20;;
21804;SDS011;11064;47.102;15.452;2022-09-09T19:21:37;6.22;;;4.25;;
21804;SDS011;11064;47.102;15.452;2022-09-09T19:24:08;4.93;;;3.90;;
21804;SDS011;11064;47.102;15.452;2022-09-09T19:26:40;5.97;;;4.20;;
21804;SDS011;11064;47.102;15.452;2022-09-09T19:29:09;5.93;;;4.18;;
21804;SDS011;11064;47.102;15.452;2022-09-09T19:34:05;7.55;;;4.18;;
21804;SDS011;11064;47.102;15.452;2022-09-09T19:36:31;7.63;;;4.10;;
21804;SDS011;11064;47.102;15.452;2022-09-09T19:38:57;6.20;;;4.70;;
21804;SDS011;11064;47.102;15.452;2022-09-09T19:41:25;11.27;;;4.50;;
21804;SDS011;11064;47.102;15.452;2022-09-09T19:43:57;9.85;;;4.50;;
21804;SDS011;11064;47.102;15.452;2022-09-09T19:46:27;5.90;;;4.00;;
21804;SDS011;11064;47.102;15.452;2022-09-09T19:48:54;9.00;;;4.28;;
21804;SDS011;11064;47.102;15.452;2022-09-09T19:51:21;6.45;;;4.20;;
21804;SDS011;11064;47.102;15.452;2022-09-09T19:53:52;6.85;;;4.40;;
21804;SDS011;11064;47.102;15.452;2022-09-09T19:56:24;4.57;;;3.72;;
21804;SDS011;11064;47.102;15.452;2022-09-09T19:58:51;9.57;;;4.90;;
21804;SDS011;11064;47.102;15.452;2022-09-09T20:01:19;6.03;;;4.18;;
21804;SDS011;11064;47.102;15.452;2022-09-09T20:03:48;5.22;;;4.25;;
21804;SDS011;11064;47.102;15.452;2022-09-09T20:06:16;5.85;;;4.03;;
21804;SDS011;11064;47.102;15.452;2022-09-09T20:08:44;5.20;;;4.45;;
21804;SDS011;11064;47.102;15.452;2022-09-09T20:11:12;7.25;;;4.80;;
21804;SDS011;11064;47.102;15.452;2022-09-09T20:13:39;7.97;;;4.30;;
21804;SDS011;11064;47.102;15.452;2022-09-09T20:16:10;5.38;;;4.28;;